Time;durP1;ratioP1;P1;durP2;ratioP2;P2;SDS_P1;SDS_P2;PMS_P1;PMS_P2;Temp;Humidity;BMP_temperature;BMP_pressure;BME280_temperature;BME280_humidity;BME280_pressure;Samples;Min_cycle;Max_cycle;Signal;HPM_P1;HPM_P2
2021/05/14 00:00:29;;;;;;;9.35;5.60;;;13.60;75.20;;;;;;5058235;28;20119;-60
2021/05/14 00:02:55;;;;;;;9.18;5.22;;;13.60;75.20;;;;;;5072833;28;20491;-60
2021/05/14 00:05:22;;;;;;;10.43;5.35;;;13.60;75.20;;;;;;5072587;28;20028;-60
2021/05/14 00:07:48;;;;;;;8.40;5.60;;;13.60;75.30;;;;;;5072351;28;20036;-60
2021/05/14 00:10:16;;;;;;;7.10;4.22;;;13.60;75.30;;;;;;5072889;28;20035;-60
2021/05/14 00:12:42;;;;;;;7.28;4.85;;;13.60;75.30;;;;;;5072426;28;20659;-60
2021/05/14 00:15:08;;;;;;;8.07;3.83;;;13.60;75.20;;;;;;5072529;28;20025;-60
2021/05/14 00:17:35;;;;;;;5.93;4.30;;;13.70;75.10;;;;;;5072653;28;20044;-60
2021/05/14 00:20:02;;;;;;;8.85;4.72;;;13.60;75.10;;;;;;5072451;28;20082;-60
2021/05/14 00:22:28;;;;;;;7.60;5.20;;;13.60;75.10;;;;;;5072086;28;20101;-60
2021/05/14 00:24:53;;;;;;;7.30;4.35;;;13.60;75.10;;;;;;5071385;28;20020;-60
2021/05/14 00:27:19;;;;;;;10.15;4.47;;;13.60;75.10;;;;;;5072328;28;20025;-60
2021/05/14 00:29:45;;;;;;;7.95;4.65;;;13.60;75.20;;;;;;5072189;28;20476;-60
2021/05/14 00:32:10;;;;;;;9.20;4.30;;;13.60;75.20;;;;;;5072803;28;20032;-60
2021/05/14 00:34:36;;;;;;;7.38;3.85;;;13.60;75.20;;;;;;5072304;28;20028;-60
2021/05/14 00:37:02;;;;;;;5.57;3.30;;;13.60;75.20;;;;;;5074874;28;20097;-60
2021/05/14 00:39:28;;;;;;;5.40;3.42;;;13.60;75.10;;;;;;5076610;28;20386;-60
2021/05/14 00:41:53;;;;;;;6.50;3.22;;;13.60;75.10;;;;;;5076020;28;20029;-60
2021/05/14 00:44:26;;;;;;;8.18;3.90;;;13.50;75.10;;;;;;5076568;28;20502;-59
2021/05/14 00:46:52;;;;;;;10.85;3.67;;;13.50;75.10;;;;;;5076383;28;20032;-60
2021/05/14 00:49:18;;;;;;;5.10;3.38;;;13.50;75.10;;;;;;5076099;28;20047;-60
2021/05/14 00:51:44;;;;;;;8.02;4.50;;;13.50;75.10;;;;;;5076237;28;20471;-60
2021/05/14 00:54:10;;;;;;;7.00;5.32;;;13.50;75.10;;;;;;5076142;28;20036;-60
2021/05/14 00:56:36;;;;;;;8.48;5.22;;;13.50;75.20;;;;;;5074254;28;20040;-60
2021/05/14 00:59:02;;;;;;;8.38;4.65;;;13.50;75.20;;;;;;5076199;28;20480;-60
2021/05/14 01:01:27;;;;;;;6.65;3.97;;;13.50;75.20;;;;;;5075857;28;20024;-60
2021/05/14 01:03:53;;;;;;;9.20;4.10;;;13.50;75.20;;;;;;5074285;28;20376;-60
2021/05/14 01:06:19;;;;;;;5.03;3.63;;;13.50;75.00;;;;;;5076001;28;20439;-60
2021/05/14 01:08:44;;;;;;;6.63;2.80;;;13.50;74.80;;;;;;5075698;28;20118;-60
2021/05/14 01:11:10;;;;;;;6.95;3.15;;;13.50;74.60;;;;;;5074289;28;20097;-60
2021/05/14 01:13:36;;;;;;;5.68;3.10;;;13.50;74.60;;;;;;5076167;28;20035;-60
2021/05/14 01:16:01;;;;;;;7.38;2.67;;;13.50;74.50;;;;;;5075743;28;20040;-60
2021/05/14 01:18:27;;;;;;;7.60;2.97;;;13.50;74.30;;;;;;5074159;28;20029;-60
2021/05/14 01:20:53;;;;;;;8.88;2.88;;;13.50;74.10;;;;;;5075755;28;20032;-60
2021/05/14 01:23:18;;;;;;;10.63;2.90;;;13.50;74.00;;;;;;5075529;28;20388;-60
2021/05/14 01:25:44;;;;;;;7.90;2.95;;;13.50;74.00;;;;;;5075263;28;20025;-60
2021/05/14 01:28:10;;;;;;;7.50;3.30;;;13.40;73.90;;;;;;5075769;28;20115;-60
2021/05/14 01:30:36;;;;;;;7.32;2.83;;;13.50;73.90;;;;;;5075598;28;20067;-60
2021/05/14 01:33:01;;;;;;;7.30;3.08;;;13.50;73.80;;;;;;5075147;28;20368;-60
2021/05/14 01:35:27;;;;;;;7.43;3.97;;;13.50;73.70;;;;;;5075543;28;20074;-60
2021/05/14 01:37:52;;;;;;;6.47;3.50;;;13.50;73.60;;;;;;5075034;28;20048;-60
2021/05/14 01:40:18;;;;;;;9.50;3.60;;;13.50;73.50;;;;;;5074958;28;20032;-60
2021/05/14 01:42:47;;;;;;;7.47;3.80;;;13.50;73.40;;;;;;5061679;28;20039;-58
2021/05/14 01:45:13;;;;;;;9.18;4.18;;;13.50;73.40;;;;;;5061227;28;20025;-58
2021/05/14 01:47:39;;;;;;;7.03;3.80;;;13.60;73.30;;;;;;5075421;28;20029;-58
2021/05/14 01:50:05;;;;;;;6.38;3.70;;;13.60;73.20;;;;;;5074960;28;20047;-58
2021/05/14 01:52:31;;;;;;;9.90;4.38;;;13.50;73.20;;;;;;5074544;28;20135;-57
2021/05/14 01:54:56;;;;;;;8.48;3.53;;;13.60;73.20;;;;;;5075032;28;20557;-60
2021/05/14 01:57:22;;;;;;;9.90;4.25;;;13.60;73.10;;;;;;5073607;28;20124;-60
2021/05/14 01:59:48;;;;;;;10.88;4.22;;;13.60;73.20;;;;;;5074657;28;20108;-60
2021/05/14 02:02:18;;;;;;;10.27;3.80;;;13.60;73.20;;;;;;5074794;28;20028;-60
2021/05/14 02:04:45;;;;;;;10.35;3.42;;;13.60;73.20;;;;;;5074965;28;20029;-57
2021/05/14 02:07:10;;;;;;;9.50;3.35;;;13.60;73.10;;;;;;5074293;28;20068;-58
2021/05/14 02:09:36;;;;;;;7.50;3.78;;;13.60;73.10;;;;;;5074912;28;20692;-58
2021/05/14 02:12:02;;;;;;;10.45;3.55;;;13.60;73.10;;;;;;5074995;28;20119;-57
2021/05/14 02:14:28;;;;;;;5.57;3.20;;;13.60;73.20;;;;;;5074380;28;20028;-58
2021/05/14 02:16:53;;;;;;;6.38;3.30;;;13.60;73.10;;;;;;5074966;28;20399;-58
2021/05/14 02:19:19;;;;;;;9.95;3.28;;;13.60;73.10;;;;;;5074510;28;20081;-58
2021/05/14 02:21:45;;;;;;;7.85;3.42;;;13.60;73.10;;;;;;5074283;28;20033;-58
2021/05/14 02:24:10;;;;;;;8.27;3.92;;;13.60;73.10;;;;;;5074378;28;20024;-58
2021/05/14 02:26:36;;;;;;;7.88;3.80;;;13.60;73.20;;;;;;5073886;28;20033;-58
2021/05/14 02:29:03;;;;;;;8.55;4.03;;;13.60;73.10;;;;;;5073751;28;20479;-58
2021/05/14 02:31:29;;;;;;;9.25;3.70;;;13.50;73.00;;;;;;5074234;28;20052;-58
2021/05/14 02:33:55;;;;;;;16.00;3.10;;;13.50;73.00;;;;;;5073815;28;20048;-58
2021/05/14 02:36:21;;;;;;;8.00;3.28;;;13.50;72.80;;;;;;5064422;28;20082;-58
2021/05/14 02:38:47;;;;;;;8.43;2.50;;;13.50;72.70;;;;;;5073798;28;20517;-58
2021/05/14 02:41:12;;;;;;;6.20;2.83;;;13.50;72.60;;;;;;5073757;28;20036;-58
2021/05/14 02:43:39;;;;;;;11.32;3.55;;;13.50;72.60;;;;;;5068933;28;20472;-58
2021/05/14 02:46:05;;;;;;;14.48;3.63;;;13.50;73.10;;;;;;5074037;28;20027;-59
2021/05/14 02:48:31;;;;;;;10.07;2.65;;;13.50;72.50;;;;;;5070177;28;20021;-58
2021/05/14 02:50:57;;;;;;;15.30;4.20;;;13.40;72.50;;;;;;5067738;28;20086;-58
2021/05/14 02:53:22;;;;;;;10.52;3.10;;;13.40;72.50;;;;;;5072715;28;20024;-58
2021/05/14 02:55:48;;;;;;;9.85;3.53;;;13.40;72.40;;;;;;5073342;28;20028;-58
2021/05/14 02:58:14;;;;;;;17.65;3.40;;;13.40;72.40;;;;;;5070529;28;20404;-58
2021/05/14 03:00:40;;;;;;;12.10;3.67;;;13.40;72.40;;;;;;5072466;28;20040;-58
2021/05/14 03:03:06;;;;;;;11.70;3.10;;;13.40;72.40;;;;;;5052724;28;20028;-58
2021/05/14 03:05:31;;;;;;;13.20;3.05;;;13.30;72.40;;;;;;5059750;28;20024;-59
2021/05/14 03:07:57;;;;;;;11.98;3.10;;;13.30;72.50;;;;;;5072085;28;20068;-58
2021/05/14 03:10:23;;;;;;;6.78;2.50;;;13.30;72.50;;;;;;5073499;28;20028;-58
2021/05/14 03:12:49;;;;;;;9.63;2.33;;;13.30;72.60;;;;;;5073693;28;20020;-58
2021/05/14 03:15:15;;;;;;;10.93;2.70;;;13.30;72.60;;;;;;5073405;28;20032;-58
2021/05/14 03:17:41;;;;;;;12.85;3.17;;;13.30;72.70;;;;;;5072999;28;20151;-58
2021/05/14 03:20:08;;;;;;;10.85;2.90;;;13.30;72.60;;;;;;5073597;28;20056;-58
2021/05/14 03:22:35;;;;;;;14.45;2.55;;;13.20;72.60;;;;;;5073367;28;20032;-58
2021/05/14 03:25:00;;;;;;;11.27;2.80;;;13.30;72.70;;;;;;5071447;28;20372;-58
2021/05/14 03:27:26;;;;;;;9.65;3.20;;;13.20;72.70;;;;;;5073292;28;20029;-58
2021/05/14 03:29:52;;;;;;;10.60;2.92;;;13.20;72.80;;;;;;5072522;28;20111;-58
2021/05/14 03:32:18;;;;;;;9.35;2.35;;;13.20;72.80;;;;;;5072334;28;20028;-58
2021/05/14 03:34:43;;;;;;;11.90;3.38;;;13.20;72.70;;;;;;5072891;28;20017;-58
2021/05/14 03:37:09;;;;;;;10.23;2.53;;;13.20;73.30;;;;;;5072461;28;20395;-58
2021/05/14 03:39:46;;;;;;;8.98;2.25;;;13.20;72.60;;;;;;5072188;28;20059;-59
2021/05/14 03:42:17;;;;;;;8.00;2.17;;;13.20;72.50;;;;;;5071426;28;20090;-58
2021/05/14 03:44:44;;;;;;;10.25;2.17;;;13.20;72.50;;;;;;5072547;28;20024;-58
2021/05/14 03:47:10;;;;;;;11.07;2.28;;;13.20;72.40;;;;;;5072132;28;20115;-58
2021/05/14 03:49:37;;;;;;;9.45;2.72;;;13.20;72.40;;;;;;5072336;28;20036;-58
2021/05/14 03:52:07;;;;;;;7.57;2.33;;;13.10;72.40;;;;;;5072242;28;20086;-58
2021/05/14 03:54:33;;;;;;;16.73;3.15;;;13.20;72.40;;;;;;5066491;28;20036;-58
2021/05/14 03:56:59;;;;;;;11.90;2.72;;;13.10;72.30;;;;;;5068169;28;20043;-58
2021/05/14 03:59:27;;;;;;;11.57;2.38;;;13.20;72.30;;;;;;5071486;28;20032;-58
2021/05/14 04:01:52;;;;;;;11.68;2.72;;;13.20;72.30;;;;;;5067855;28;20033;-58
2021/05/14 04:04:18;;;;;;;12.40;3.65;;;13.10;72.30;;;;;;5069658;28;20028;-58
2021/05/14 04:06:44;;;;;;;9.80;3.40;;;13.10;72.20;;;;;;5069515;28;20074;-58
2021/05/14 04:09:10;;;;;;;14.88;3.95;;;13.10;72.30;;;;;;5067770;28;20035;-58
2021/05/14 04:14:34;;;;;;;13.20;4.10;;;13.10;72.40;;;;;;5046531;28;20536;-58
2021/05/14 04:17:01;;;;;;;14.90;4.78;;;13.10;72.50;;;;;;5069407;28;20040;-58
2021/05/14 04:19:27;;;;;;;13.70;4.30;;;13.10;72.70;;;;;;5068082;28;20043;-58
2021/05/14 04:21:55;;;;;;;9.60;4.15;;;13.10;72.70;;;;;;5069743;28;20032;-58
2021/05/14 04:24:22;;;;;;;13.05;4.50;;;13.10;72.80;;;;;;5067265;28;20032;-58
2021/05/14 04:26:49;;;;;;;19.92;3.85;;;13.10;72.80;;;;;;5069722;28;20032;-58
2021/05/14 04:29:16;;;;;;;14.95;4.35;;;13.10;73.00;;;;;;5066572;28;20033;-58
2021/05/14 04:31:43;;;;;;;17.52;4.47;;;13.10;73.00;;;;;;5069956;28;20108;-58
2021/05/14 04:34:13;;;;;;;11.75;3.80;;;13.10;73.70;;;;;;5067398;28;20025;-58
2021/05/14 04:36:39;;;;;;;16.40;3.42;;;13.10;73.10;;;;;;5069765;28;20047;-58
2021/05/14 04:39:07;;;;;;;7.97;3.03;;;13.10;73.10;;;;;;5069000;28;20476;-58
2021/05/14 04:41:33;;;;;;;6.93;2.58;;;13.00;73.00;;;;;;5067552;28;20039;-58
2021/05/14 04:43:59;;;;;;;12.80;2.88;;;13.10;73.10;;;;;;5070071;28;20033;-58
2021/05/14 04:46:26;;;;;;;14.85;2.92;;;13.10;73.10;;;;;;5067008;28;20100;-58
2021/05/14 04:48:51;;;;;;;12.98;2.55;;;13.10;73.10;;;;;;5069445;28;20047;-58
2021/05/14 04:51:18;;;;;;;12.55;2.65;;;13.10;73.00;;;;;;5066977;28;20112;-58
2021/05/14 04:53:45;;;;;;;8.45;2.20;;;13.10;73.10;;;;;;5069815;28;20067;-59
2021/05/14 04:56:13;;;;;;;15.23;2.70;;;13.10;73.00;;;;;;5067424;28;20032;-58
2021/05/14 04:58:39;;;;;;;13.48;2.88;;;13.10;73.00;;;;;;5070027;28;20044;-59
2021/05/14 05:01:04;;;;;;;6.72;2.20;;;13.10;73.00;;;;;;5072340;28;20037;-58
2021/05/14 05:03:30;;;;;;;9.80;2.70;;;13.10;72.80;;;;;;5071678;28;20112;-58
2021/05/14 05:05:56;;;;;;;9.25;1.92;;;13.10;72.60;;;;;;5072161;28;20040;-58
2021/05/14 05:08:22;;;;;;;8.77;1.98;;;13.10;72.60;;;;;;5071902;28;20041;-58
2021/05/14 05:10:47;;;;;;;11.98;2.20;;;13.10;72.60;;;;;;5070199;28;20028;-58
2021/05/14 05:13:15;;;;;;;6.00;1.83;;;13.10;72.60;;;;;;5072456;28;20028;-58
2021/05/14 05:15:40;;;;;;;13.77;2.85;;;13.10;72.60;;;;;;5071941;28;20033;-58
2021/05/14 05:18:06;;;;;;;9.95;2.45;;;13.10;72.50;;;;;;5071702;28;20048;-58
2021/05/14 05:20:32;;;;;;;11.35;2.83;;;13.10;72.50;;;;;;5072199;28;20020;-58
2021/05/14 05:22:58;;;;;;;9.35;2.50;;;13.10;72.60;;;;;;5073809;28;20506;-58
2021/05/14 05:25:24;;;;;;;11.02;2.40;;;13.10;72.50;;;;;;5075198;28;20029;-58
2021/05/14 05:27:49;;;;;;;12.43;3.50;;;13.10;72.50;;;;;;5075585;28;20036;-58
2021/05/14 05:30:17;;;;;;;10.30;2.67;;;13.20;72.60;;;;;;5075574;28;20035;-59
2021/05/14 05:32:43;;;;;;;10.00;2.55;;;13.10;72.60;;;;;;5075496;28;20158;-58
2021/05/14 05:35:12;;;;;;;11.90;4.18;;;13.10;72.50;;;;;;5075436;28;20035;-58
2021/05/14 05:37:38;;;;;;;11.20;3.10;;;13.10;72.50;;;;;;5073792;28;20036;-58
2021/05/14 05:40:05;;;;;;;15.13;2.78;;;13.10;72.60;;;;;;5075371;28;20479;-60
2021/05/14 05:42:31;;;;;;;6.60;2.38;;;13.20;72.60;;;;;;5068840;28;20383;-59
2021/05/14 05:44:56;;;;;;;9.20;2.47;;;13.20;72.80;;;;;;5068356;28;20033;-58
2021/05/14 05:47:22;;;;;;;10.75;2.78;;;13.10;72.80;;;;;;5065117;28;20025;-58
2021/05/14 05:49:50;;;;;;;8.88;3.17;;;13.20;72.80;;;;;;5074824;28;20472;-58
2021/05/14 05:52:16;;;;;;;11.27;3.25;;;13.20;72.80;;;;;;5059284;28;20029;-59
2021/05/14 05:54:42;;;;;;;11.40;2.83;;;13.20;72.70;;;;;;5059292;28;20109;-58
2021/05/14 05:57:07;;;;;;;8.95;2.30;;;13.20;72.60;;;;;;5062709;28;20488;-58
2021/05/14 05:59:35;;;;;;;6.18;2.40;;;13.20;72.50;;;;;;5067501;28;20476;-59
2021/05/14 06:02:01;;;;;;;7.07;2.22;;;13.20;72.40;;;;;;5070505;28;20099;-59
2021/05/14 06:04:27;;;;;;;15.77;2.70;;;13.20;72.20;;;;;;5061992;28;20032;-61
2021/05/14 06:06:53;;;;;;;10.43;2.90;;;13.20;72.00;;;;;;5054875;28;20121;-60
2021/05/14 06:09:18;;;;;;;11.48;2.53;;;13.20;72.20;;;;;;5057004;28;20124;-59
2021/05/14 06:11:44;;;;;;;11.57;2.50;;;13.20;72.20;;;;;;5060824;28;20017;-59
2021/05/14 06:14:10;;;;;;;10.05;2.38;;;13.20;72.10;;;;;;5070709;28;20056;-60
2021/05/14 06:16:35;;;;;;;12.15;2.50;;;13.30;72.20;;;;;;5065418;28;20032;-61
2021/05/14 06:19:13;;;;;;;8.70;2.42;;;13.20;72.00;;;;;;5074197;28;20467;-63
2021/05/14 06:21:49;;;;;;;11.70;2.72;;;13.20;71.90;;;;;;5070914;28;20086;-61
2021/05/14 06:24:16;;;;;;;10.85;2.13;;;13.30;72.10;;;;;;5072236;28;20020;-60
2021/05/14 06:26:42;;;;;;;13.98;2.60;;;13.30;72.20;;;;;;5072262;28;20036;-62
2021/05/14 06:29:11;;;;;;;14.88;2.72;;;13.30;72.30;;;;;;5073882;28;20020;-60
2021/05/14 06:31:37;;;;;;;11.52;2.67;;;13.30;72.00;;;;;;5069295;28;20016;-61
2021/05/14 06:34:03;;;;;;;11.50;2.53;;;13.30;72.00;;;;;;5072297;28;20448;-60
2021/05/14 06:36:28;;;;;;;12.32;2.50;;;13.40;72.10;;;;;;5063493;28;20116;-60
2021/05/14 06:38:54;;;;;;;13.35;3.65;;;13.40;72.00;;;;;;5057430;28;20108;-59
2021/05/14 06:41:20;;;;;;;8.88;2.42;;;13.40;72.10;;;;;;5055253;28;20111;-59
2021/05/14 06:43:46;;;;;;;14.93;2.85;;;13.40;72.00;;;;;;5056215;28;20130;-59
2021/05/14 06:46:12;;;;;;;10.05;2.83;;;13.40;72.60;;;;;;5054315;28;20354;-60
2021/05/14 06:48:37;;;;;;;10.57;3.15;;;13.40;72.60;;;;;;5053971;28;20025;-59
2021/05/14 06:51:04;;;;;;;13.55;2.38;;;13.40;72.60;;;;;;5056520;28;20464;-59
2021/05/14 06:53:30;;;;;;;10.43;2.45;;;13.40;72.60;;;;;;5067313;28;20021;-60
2021/05/14 06:55:56;;;;;;;10.43;2.78;;;13.40;72.80;;;;;;5073011;28;20033;-60
2021/05/14 06:58:22;;;;;;;17.95;2.78;;;13.50;72.80;;;;;;5072382;28;20396;-59
2021/05/14 07:00:47;;;;;;;5.05;2.10;;;13.40;72.70;;;;;;5073122;28;20029;-60
2021/05/14 07:03:14;;;;;;;6.53;2.45;;;13.40;72.60;;;;;;5072511;28;20043;-59
2021/05/14 07:05:40;;;;;;;4.88;2.50;;;13.50;72.80;;;;;;5073599;28;20028;-60
2021/05/14 07:08:06;;;;;;;8.68;2.80;;;13.50;73.20;;;;;;5063723;28;20115;-62
2021/05/14 07:10:32;;;;;;;15.27;2.97;;;13.50;73.10;;;;;;5062623;28;20047;-63
2021/05/14 07:12:57;;;;;;;8.35;3.08;;;13.50;72.90;;;;;;5059253;28;20037;-60
2021/05/14 07:15:23;;;;;;;11.05;3.60;;;13.50;72.60;;;;;;5059423;28;20021;-60
2021/05/14 07:17:49;;;;;;;8.38;2.83;;;13.50;72.40;;;;;;5068991;28;20037;-60
2021/05/14 07:20:15;;;;;;;11.90;3.63;;;13.50;73.10;;;;;;5069087;28;20069;-59
2021/05/14 07:22:41;;;;;;;23.75;3.33;;;13.60;72.50;;;;;;5069259;28;20025;-60
2021/05/14 07:25:08;;;;;;;12.25;3.25;;;13.60;72.30;;;;;;5064266;28;20029;-60
2021/05/14 07:27:33;;;;;;;8.05;2.22;;;13.60;72.20;;;;;;5068853;28;20074;-60
2021/05/14 07:29:59;;;;;;;12.85;3.30;;;13.60;72.20;;;;;;5068868;28;20426;-60
2021/05/14 07:32:25;;;;;;;8.73;2.08;;;13.60;72.00;;;;;;5067436;28;20048;-60
2021/05/14 07:34:52;;;;;;;6.90;2.00;;;13.60;71.90;;;;;;5063191;28;20074;-60
2021/05/14 07:37:19;;;;;;;7.30;2.20;;;13.60;71.90;;;;;;5056009;28;20135;-60
2021/05/14 07:39:44;;;;;;;13.05;2.55;;;13.70;72.00;;;;;;5051247;28;20418;-60
2021/05/14 07:42:10;;;;;;;10.52;3.20;;;13.70;71.70;;;;;;5050688;28;20039;-59
2021/05/14 07:44:36;;;;;;;9.82;2.78;;;13.70;71.80;;;;;;5053574;28;20093;-60
2021/05/14 07:47:02;;;;;;;9.88;3.20;;;13.80;71.80;;;;;;5061107;28;20448;-60
2021/05/14 07:49:31;;;;;;;9.25;2.47;;;13.80;71.70;;;;;;5061945;28;20425;-60
2021/05/14 07:51:57;;;;;;;10.82;2.38;;;13.80;71.40;;;;;;5062329;28;20047;-59
2021/05/14 07:54:23;;;;;;;12.35;3.15;;;13.80;71.30;;;;;;5060728;28;20756;-59
2021/05/14 07:56:48;;;;;;;11.30;2.42;;;13.80;71.90;;;;;;5061507;28;20093;-59
2021/05/14 07:59:14;;;;;;;22.23;2.85;;;13.90;71.40;;;;;;5061655;28;20044;-59
2021/05/14 08:01:40;;;;;;;7.28;2.30;;;13.90;71.50;;;;;;5063172;28;20040;-60
2021/05/14 08:04:06;;;;;;;10.50;2.75;;;13.90;71.30;;;;;;5057061;28;20052;-60
2021/05/14 08:06:33;;;;;;;9.90;2.95;;;13.90;71.30;;;;;;5050031;28;20047;-60
2021/05/14 08:09:02;;;;;;;8.98;2.10;;;13.90;71.10;;;;;;5052022;28;20032;-60
2021/05/14 08:11:28;;;;;;;7.38;2.60;;;14.00;71.30;;;;;;5051693;28;20067;-59
2021/05/14 08:13:54;;;;;;;7.45;2.40;;;13.90;71.30;;;;;;5050924;28;20029;-60
2021/05/14 08:16:20;;;;;;;7.05;2.78;;;13.90;71.30;;;;;;5054905;28;20426;-60
2021/05/14 08:18:45;;;;;;;15.57;4.00;;;13.90;71.40;;;;;;5059511;28;20036;-60
2021/05/14 08:21:14;;;;;;;13.35;3.17;;;13.90;71.60;;;;;;5055275;28;20024;-60
2021/05/14 08:23:40;;;;;;;11.02;3.00;;;13.90;71.80;;;;;;5055107;28;20025;-60
2021/05/14 08:26:05;;;;;;;11.95;3.45;;;13.90;71.90;;;;;;5058271;28;20013;-75
2021/05/14 08:28:33;;;;;;;14.07;3.28;;;13.90;72.10;;;;;;5055635;28;20025;-60
2021/05/14 08:30:59;;;;;;;8.82;2.97;;;14.00;72.20;;;;;;5054497;28;20036;-60
2021/05/14 08:33:27;;;;;;;10.07;2.80;;;14.00;72.10;;;;;;5054423;28;20025;-60
2021/05/14 08:35:53;;;;;;;13.65;2.88;;;14.00;71.80;;;;;;5054968;28;20042;-59
2021/05/14 08:38:19;;;;;;;13.43;3.30;;;14.00;71.30;;;;;;5053504;28;20446;-60
2021/05/14 08:40:45;;;;;;;16.73;3.35;;;14.00;71.50;;;;;;5061668;28;20033;-60
2021/05/14 08:43:11;;;;;;;10.60;3.20;;;14.10;71.70;;;;;;5058926;28;20029;-60
2021/05/14 08:45:38;;;;;;;5.65;3.05;;;14.10;72.20;;;;;;5057019;28;20048;-61
2021/05/14 08:48:11;;;;;;;16.40;3.45;;;14.00;72.20;;;;;;5062175;28;20036;-61
2021/05/14 08:50:38;;;;;;;10.48;3.25;;;14.00;72.20;;;;;;5067532;28;20408;-60
2021/05/14 08:53:04;;;;;;;9.52;2.75;;;14.10;72.60;;;;;;5060450;28;20064;-60
2021/05/14 08:55:29;;;;;;;9.55;3.53;;;14.00;72.90;;;;;;5051360;28;20496;-60
2021/05/14 08:57:55;;;;;;;12.88;3.08;;;14.00;73.10;;;;;;5054873;28;20103;-61
2021/05/14 09:00:21;;;;;;;7.32;2.65;;;14.00;73.10;;;;;;5060844;28;20033;-60
2021/05/14 09:02:48;;;;;;;12.25;3.58;;;14.00;73.30;;;;;;5056175;28;20087;-61
2021/05/14 09:05:23;;;;;;;13.85;3.97;;;14.00;73.20;;;;;;5057875;28;20458;-65
2021/05/14 09:07:50;;;;;;;10.80;3.10;;;14.00;73.10;;;;;;5069270;28;20071;-61
2021/05/14 09:10:19;;;;;;;9.38;2.67;;;14.00;73.80;;;;;;5065633;28;20036;-61
2021/05/14 09:12:45;;;;;;;6.47;2.40;;;14.10;72.80;;;;;;5066282;28;20021;-60
2021/05/14 09:15:21;;;;;;;9.30;2.65;;;14.10;72.80;;;;;;5072411;28;20024;-61
2021/05/14 09:18:09;;;;;;;9.80;2.67;;;14.10;72.80;;;;;;5062413;28;20549;-60
2021/05/14 09:20:41;;;;;;;11.30;3.20;;;14.10;72.50;;;;;;5052683;28;20473;-60
2021/05/14 09:23:15;;;;;;;10.45;2.58;;;14.20;72.40;;;;;;5060093;28;20021;-61
2021/05/14 09:26:04;;;;;;;18.80;2.60;;;14.20;72.70;;;;;;5073808;28;20028;-60
2021/05/14 09:28:41;;;;;;;8.52;2.97;;;14.20;72.70;;;;;;5074265;28;20032;-60
2021/05/14 09:31:07;;;;;;;9.93;3.13;;;14.30;72.10;;;;;;5068251;28;20035;-60
2021/05/14 09:33:36;;;;;;;10.52;2.90;;;14.30;72.50;;;;;;5075090;28;20021;-60
2021/05/14 09:36:05;;;;;;;13.30;3.20;;;14.30;72.60;;;;;;5064843;28;20021;-60
2021/05/14 09:39:08;;;;;;;16.73;3.00;;;14.40;72.50;;;;;;5065654;28;20063;-60
2021/05/14 09:41:41;;;;;;;12.43;3.10;;;14.40;71.90;;;;;;5062228;28;20041;-60
2021/05/14 09:44:11;;;;;;;12.77;2.50;;;14.40;71.80;;;;;;5056645;28;20025;-60
2021/05/14 09:46:37;;;;;;;8.93;2.20;;;14.50;71.40;;;;;;5060692;28;20024;-60
2021/05/14 09:49:09;;;;;;;8.15;3.05;;;14.50;71.00;;;;;;5065609;28;20032;-61
2021/05/14 09:51:47;;;;;;;6.53;2.42;;;14.50;70.00;;;;;;5058813;28;20095;-60
2021/05/14 09:54:29;;;;;;;8.77;2.40;;;14.50;70.10;;;;;;5074752;28;20025;-60
2021/05/14 09:59:42;;;;;;;7.05;2.45;;;14.60;69.90;;;;;;5064344;28;20072;-60
2021/05/14 10:02:37;;;;;;;8.13;2.80;;;14.70;70.00;;;;;;5074657;28;20071;-60
2021/05/14 10:05:12;;;;;;;8.93;2.58;;;14.70;70.40;;;;;;5074673;28;20048;-60
2021/05/14 10:07:40;;;;;;;12.15;2.83;;;14.80;70.10;;;;;;5074729;28;20028;-60
2021/05/14 10:10:08;;;;;;;8.13;2.63;;;14.80;70.80;;;;;;5073805;28;20103;-60
2021/05/14 10:12:35;;;;;;;14.02;3.47;;;14.80;71.10;;;;;;5074053;28;20024;-60
2021/05/14 10:15:02;;;;;;;8.95;2.72;;;14.90;71.20;;;;;;5074871;28;20387;-60
2021/05/14 10:17:28;;;;;;;14.23;3.25;;;14.90;70.90;;;;;;5074583;28;20483;-60
2021/05/14 10:19:57;;;;;;;9.52;3.97;;;15.00;70.00;;;;;;5074553;28;20028;-61
2021/05/14 10:22:29;;;;;;;7.32;2.78;;;15.10;69.90;;;;;;5074508;28;20123;-62
2021/05/14 10:24:59;;;;;;;10.27;3.38;;;15.10;69.60;;;;;;5072526;28;20104;-61
2021/05/14 10:27:25;;;;;;;9.40;3.30;;;15.20;69.40;;;;;;5072518;28;20036;-61
2021/05/14 10:29:58;;;;;;;14.50;3.30;;;15.30;68.70;;;;;;5074072;28;20029;-60
2021/05/14 10:32:39;;;;;;;11.55;2.63;;;15.30;69.40;;;;;;5074176;28;20096;-60
2021/05/14 10:35:07;;;;;;;9.45;2.30;;;15.30;69.60;;;;;;5070891;28;20032;-60
2021/05/14 10:37:57;;;;;;;12.05;3.05;;;15.30;71.30;;;;;;5064228;28;20036;-60
2021/05/14 10:40:29;;;;;;;10.68;2.97;;;15.40;70.40;;;;;;5062502;28;20045;-60
2021/05/14 10:42:59;;;;;;;8.35;2.67;;;15.40;68.90;;;;;;5069129;28;20028;-60
2021/05/14 10:45:34;;;;;;;13.45;2.65;;;15.40;70.00;;;;;;5068950;28;20036;-60
2021/05/14 10:48:01;;;;;;;12.02;3.90;;;15.40;69.90;;;;;;5070202;28;20025;-61
2021/05/14 10:50:36;;;;;;;12.27;3.20;;;15.50;69.90;;;;;;5060833;28;20051;-61
2021/05/14 10:53:20;;;;;;;13.30;3.13;;;15.50;69.70;;;;;;5060424;28;20039;-61
2021/05/14 10:55:47;;;;;;;10.70;3.50;;;15.50;69.70;;;;;;5059740;28;20484;-60
2021/05/14 10:58:37;;;;;;;12.02;2.63;;;15.60;69.40;;;;;;5056446;28;20045;-61
2021/05/14 11:01:06;;;;;;;8.50;3.00;;;15.60;70.50;;;;;;5057531;28;20026;-60
2021/05/14 11:03:33;;;;;;;10.88;3.03;;;15.60;69.80;;;;;;5054245;28;20106;-60
2021/05/14 11:06:09;;;;;;;12.23;3.55;;;15.60;70.00;;;;;;5057152;28;20032;-61
2021/05/14 11:08:35;;;;;;;9.88;2.92;;;15.60;69.90;;;;;;5054621;28;20477;-61
2021/05/14 11:11:03;;;;;;;7.43;3.13;;;15.60;70.00;;;;;;5055846;28;20021;-69
2021/05/14 11:13:35;;;;;;;9.93;3.03;;;15.60;70.00;;;;;;5058207;28;20057;-60
2021/05/14 11:16:29;;;;;;;16.00;3.53;;;15.70;69.60;;;;;;5071312;28;20050;-64
2021/05/14 11:18:55;;;;;;;7.38;2.25;;;15.70;70.10;;;;;;5055721;28;20484;-63
2021/05/14 11:21:21;;;;;;;12.60;3.50;;;15.70;70.60;;;;;;5055391;28;20561;-63
2021/05/14 11:23:47;;;;;;;14.75;3.70;;;15.70;70.60;;;;;;5055343;28;20033;-63
2021/05/14 11:26:19;;;;;;;13.35;4.05;;;15.70;69.40;;;;;;5057863;28;20025;-63
2021/05/14 11:28:47;;;;;;;6.90;2.85;;;15.80;69.50;;;;;;5055924;28;20028;-63
2021/05/14 11:31:25;;;;;;;12.85;4.03;;;15.80;70.80;;;;;;5057311;28;20025;-63
2021/05/14 11:33:53;;;;;;;12.25;3.88;;;15.80;70.40;;;;;;5055388;28;20033;-61
2021/05/14 11:36:20;;;;;;;9.07;3.55;;;15.80;71.30;;;;;;5057023;28;20127;-60
2021/05/14 11:38:50;;;;;;;9.95;4.60;;;15.80;71.30;;;;;;5055557;28;20037;-60
2021/05/14 11:41:24;;;;;;;8.63;3.25;;;15.80;71.40;;;;;;5057676;28;20029;-60
2021/05/14 11:44:03;;;;;;;18.20;5.20;;;15.80;72.10;;;;;;5065856;28;20067;-61
2021/05/14 11:46:33;;;;;;;11.75;4.53;;;15.80;71.80;;;;;;5067137;28;20040;-60
2021/05/14 11:49:06;;;;;;;7.85;3.15;;;15.80;71.30;;;;;;5062677;28;20044;-61
2021/05/14 11:51:34;;;;;;;13.25;4.28;;;15.80;70.30;;;;;;5056348;28;20064;-60
2021/05/14 11:54:17;;;;;;;12.52;3.80;;;15.80;71.80;;;;;;5053062;28;20090;-61
2021/05/14 11:56:43;;;;;;;14.30;5.50;;;15.90;71.50;;;;;;5052023;28;20480;-61
2021/05/14 11:59:22;;;;;;;10.77;3.33;;;15.90;71.60;;;;;;5070297;28;20461;-61
2021/05/14 12:01:47;;;;;;;7.47;2.85;;;15.90;72.00;;;;;;5072414;28;20024;-61
2021/05/14 12:04:13;;;;;;;17.67;4.18;;;15.90;72.30;;;;;;5065012;28;20530;-61
2021/05/14 12:06:49;;;;;;;13.63;4.57;;;15.90;71.70;;;;;;5061271;28;20025;-61
2021/05/14 12:09:15;;;;;;;8.95;4.05;;;15.90;70.80;;;;;;5063502;28;20028;-61
2021/05/14 12:11:44;;;;;;;10.40;4.80;;;15.90;70.10;;;;;;5071919;28;20116;-62
2021/05/14 12:14:10;;;;;;;12.60;4.38;;;15.90;70.40;;;;;;5060697;28;20032;-61
2021/05/14 12:16:36;;;;;;;11.95;4.05;;;16.00;70.40;;;;;;5059794;28;20492;-61
2021/05/14 12:19:04;;;;;;;14.35;4.32;;;16.00;70.90;;;;;;5058027;28;20075;-62
2021/05/14 12:21:32;;;;;;;15.88;3.95;;;16.00;71.20;;;;;;5070832;28;20043;-61
2021/05/14 12:24:10;;;;;;;13.18;4.25;;;16.10;71.40;;;;;;5053986;28;20025;-61
2021/05/14 12:26:36;;;;;;;9.98;4.15;;;16.10;71.50;;;;;;5051026;28;20036;-61
2021/05/14 12:29:03;;;;;;;10.48;4.10;;;16.10;71.10;;;;;;5053648;28;20028;-60
2021/05/14 12:31:31;;;;;;;13.50;4.50;;;16.20;70.60;;;;;;5054929;28;20082;-61
2021/05/14 12:33:59;;;;;;;14.07;3.80;;;16.20;69.60;;;;;;5051821;28;20025;-60
2021/05/14 12:36:34;;;;;;;12.55;4.10;;;16.20;69.20;;;;;;5053467;28;20064;-69
2021/05/14 12:39:06;;;;;;;10.98;4.20;;;16.30;69.30;;;;;;5051844;28;20033;-60
2021/05/14 12:41:39;;;;;;;7.63;3.83;;;16.30;68.90;;;;;;5051586;28;20029;-60
2021/05/14 12:44:19;;;;;;;13.77;3.50;;;16.30;69.50;;;;;;5054166;28;20446;-60
2021/05/14 12:47:04;;;;;;;13.90;4.05;;;16.30;69.50;;;;;;5058287;28;20503;-60
2021/05/14 12:49:41;;;;;;;9.60;3.15;;;16.30;70.10;;;;;;5055253;28;20147;-61